sensor_id;sensor_type;location;lat;lon;timestamp;temperature;humidity
15916;DHT22;8057;47.830;-3.870;2023-05-07T06:51:43;14.20;99.90
15916;DHT22;8057;47.830;-3.870;2023-05-07T07:59:36;15.00;99.90
15916;DHT22;8057;47.830;-3.870;2023-05-07T08:04:04;15.00;99.90
15916;DHT22;8057;47.830;-3.870;2023-05-07T08:08:28;15.10;99.90
15916;DHT22;8057;47.830;-3.870;2023-05-07T08:13:09;15.20;99.90
15916;DHT22;8057;47.830;-3.870;2023-05-07T08:18:09;15.30;99.90
15916;DHT22;8057;47.830;-3.870;2023-05-07T08:22:20;15.50;99.90
15916;DHT22;8057;47.830;-3.870;2023-05-07T08:26:34;15.70;99.90
15916;DHT22;8057;47.830;-3.870;2023-05-07T08:30:44;15.70;99.90
15916;DHT22;8057;47.830;-3.870;2023-05-07T08:35:53;15.80;99.90
15916;DHT22;8057;47.830;-3.870;2023-05-07T08:40:42;16.10;99.90
15916;DHT22;8057;47.830;-3.870;2023-05-07T08:45:20;16.20;99.90
15916;DHT22;8057;47.830;-3.870;2023-05-07T08:49:35;16.30;99.90
15916;DHT22;8057;47.830;-3.870;2023-05-07T09:23:09;17.30;99.90
15916;DHT22;8057;47.830;-3.870;2023-05-07T09:27:48;17.70;99.90
15916;DHT22;8057;47.830;-3.870;2023-05-07T09:32:26;17.70;99.90
15916;DHT22;8057;47.830;-3.870;2023-05-07T09:37:21;17.70;99.90
15916;DHT22;8057;47.830;-3.870;2023-05-07T12:24:17;18.00;99.90
15916;DHT22;8057;47.830;-3.870;2023-05-07T12:33:10;17.90;99.90
15916;DHT22;8057;47.830;-3.870;2023-05-07T12:37:26;18.00;99.90
15916;DHT22;8057;47.830;-3.870;2023-05-07T12:42:21;18.10;99.90
15916;DHT22;8057;47.830;-3.870;2023-05-07T12:46:38;18.20;99.90
15916;DHT22;8057;47.830;-3.870;2023-05-07T12:51:07;18.20;99.90
15916;DHT22;8057;47.830;-3.870;2023-05-07T12:55:21;18.20;99.90
15916;DHT22;8057;47.830;-3.870;2023-05-07T12:59:34;18.00;99.90
15916;DHT22;8057;47.830;-3.870;2023-05-07T13:07:59;17.90;99.90
15916;DHT22;8057;47.830;-3.870;2023-05-07T13:12:11;17.90;99.90
15916;DHT22;8057;47.830;-3.870;2023-05-07T13:16:33;17.90;99.90
15916;DHT22;8057;47.830;-3.870;2023-05-07T13:20:46;17.80;99.90
15916;DHT22;8057;47.830;-3.870;2023-05-07T13:25:10;17.60;99.90
15916;DHT22;8057;47.830;-3.870;2023-05-07T13:29:34;17.60;99.90
15916;DHT22;8057;47.830;-3.870;2023-05-07T13:34:02;17.60;99.90
15916;DHT22;8057;47.830;-3.870;2023-05-07T13:38:16;17.70;99.90
15916;DHT22;8057;47.830;-3.870;2023-05-07T13:42:41;17.80;99.90
15916;DHT22;8057;47.830;-3.870;2023-05-07T13:47:03;17.70;99.90
15916;DHT22;8057;47.830;-3.870;2023-05-07T13:57:15;17.60;99.90
15916;DHT22;8057;47.830;-3.870;2023-05-07T14:01:26;17.60;99.90
15916;DHT22;8057;47.830;-3.870;2023-05-07T14:11:32;17.50;99.90
15916;DHT22;8057;47.830;-3.870;2023-05-07T14:26:26;17.60;99.90
15916;DHT22;8057;47.830;-3.870;2023-05-07T14:31:04;17.60;99.90
15916;DHT22;8057;47.830;-3.870;2023-05-07T14:35:40;17.70;99.90
15916;DHT22;8057;47.830;-3.870;2023-05-07T14:40:06;17.80;99.90
15916;DHT22;8057;47.830;-3.870;2023-05-07T14:44:20;17.80;99.90
15916;DHT22;8057;47.830;-3.870;2023-05-07T14:48:29;17.80;99.90
15916;DHT22;8057;47.830;-3.870;2023-05-07T14:52:39;17.90;99.90
15916;DHT22;8057;47.830;-3.870;2023-05-07T15:06:54;18.10;99.90
15916;DHT22;8057;47.830;-3.870;2023-05-07T15:11:05;18.20;99.90
15916;DHT22;8057;47.830;-3.870;2023-05-07T15:15:25;18.20;99.90
15916;DHT22;8057;47.830;-3.870;2023-05-07T15:19:40;18.40;99.90
15916;DHT22;8057;47.830;-3.870;2023-05-07T15:24:16;18.40;99.90
15916;DHT22;8057;47.830;-3.870;2023-05-07T15:28:38;18.50;99.90
15916;DHT22;8057;47.830;-3.870;2023-05-07T15:32:48;18.40;99.90
15916;DHT22;8057;47.830;-3.870;2023-05-07T15:36:58;18.50;99.90
15916;DHT22;8057;47.830;-3.870;2023-05-07T15:41:09;18.50;99.90
15916;DHT22;8057;47.830;-3.870;2023-05-07T15:45:20;18.50;99.90
15916;DHT22;8057;47.830;-3.870;2023-05-07T15:49:29;18.20;99.90
15916;DHT22;8057;47.830;-3.870;2023-05-07T15:53:39;18.10;99.90
15916;DHT22;8057;47.830;-3.870;2023-05-07T15:57:56;18.10;99.90
15916;DHT22;8057;47.830;-3.870;2023-05-07T16:02:15;17.90;99.90
15916;DHT22;8057;47.830;-3.870;2023-05-07T16:06:25;17.80;99.90
15916;DHT22;8057;47.830;-3.870;2023-05-07T16:10:34;17.70;99.90
15916;DHT22;8057;47.830;-3.870;2023-05-07T16:14:45;17.60;99.90
15916;DHT22;8057;47.830;-3.870;2023-05-07T16:18:55;17.50;99.90
15916;DHT22;8057;47.830;-3.870;2023-05-07T16:23:15;17.50;99.90
15916;DHT22;8057;47.830;-3.870;2023-05-07T16:27:26;17.50;99.90
15916;DHT22;8057;47.830;-3.870;2023-05-07T16:31:37;17.60;99.90
15916;DHT22;8057;47.830;-3.870;2023-05-07T16:35:51;17.70;99.90
15916;DHT22;8057;47.830;-3.870;2023-05-07T16:40:00;17.70;99.90
15916;DHT22;8057;47.830;-3.870;2023-05-07T16:44:14;17.80;99.90
15916;DHT22;8057;47.830;-3.870;2023-05-07T16:48:26;17.90;99.90
15916;DHT22;8057;47.830;-3.870;2023-05-07T16:52:37;18.20;99.90
15916;DHT22;8057;47.830;-3.870;2023-05-07T16:56:51;18.10;99.90
15916;DHT22;8057;47.830;-3.870;2023-05-07T17:01:15;18.30;99.90
15916;DHT22;8057;47.830;-3.870;2023-05-07T17:05:28;18.40;99.90
15916;DHT22;8057;47.830;-3.870;2023-05-07T17:09:38;18.50;99.90
15916;DHT22;8057;47.830;-3.870;2023-05-07T17:13:52;18.50;99.90
15916;DHT22;8057;47.830;-3.870;2023-05-07T17:18:02;18.20;99.90
15916;DHT22;8057;47.830;-3.870;2023-05-07T17:22:21;17.90;99.90
15916;DHT22;8057;47.830;-3.870;2023-05-07T17:26:53;17.70;99.90
15916;DHT22;8057;47.830;-3.870;2023-05-07T17:31:29;17.50;99.90
15916;DHT22;8057;47.830;-3.870;2023-05-07T17:35:44;17.40;99.90
15916;DHT22;8057;47.830;-3.870;2023-05-07T17:39:55;17.40;99.90
15916;DHT22;8057;47.830;-3.870;2023-05-07T17:44:05;17.20;99.90
15916;DHT22;8057;47.830;-3.870;2023-05-07T17:48:14;17.10;99.90
15916;DHT22;8057;47.830;-3.870;2023-05-07T17:52:25;17.10;99.90
15916;DHT22;8057;47.830;-3.870;2023-05-07T17:56:36;16.90;99.90
15916;DHT22;8057;47.830;-3.870;2023-05-07T18:00:46;16.70;99.90
15916;DHT22;8057;47.830;-3.870;2023-05-07T18:04:57;16.70;99.90
15916;DHT22;8057;47.830;-3.870;2023-05-07T18:09:07;16.50;99.90
15916;DHT22;8057;47.830;-3.870;2023-05-07T18:13:19;16.50;99.90
15916;DHT22;8057;47.830;-3.870;2023-05-07T18:17:29;16.40;99.90
15916;DHT22;8057;47.830;-3.870;2023-05-07T18:21:42;16.30;99.90
15916;DHT22;8057;47.830;-3.870;2023-05-07T18:25:53;16.30;99.90
15916;DHT22;8057;47.830;-3.870;2023-05-07T18:30:06;16.30;99.90
15916;DHT22;8057;47.830;-3.870;2023-05-07T18:34:16;16.20;99.90
15916;DHT22;8057;47.830;-3.870;2023-05-07T18:38:27;16.20;99.90
15916;DHT22;8057;47.830;-3.870;2023-05-07T18:42:38;16.30;99.90
15916;DHT22;8057;47.830;-3.870;2023-05-07T18:46:51;16.20;99.90
15916;DHT22;8057;47.830;-3.870;2023-05-07T18:51:02;16.20;99.90
15916;DHT22;8057;47.830;-3.870;2023-05-07T18:55:13;16.20;99.90
15916;DHT22;8057;47.830;-3.870;2023-05-07T18:59:25;16.10;99.90
15916;DHT22;8057;47.830;-3.870;2023-05-07T19:03:37;16.10;99.90
15916;DHT22;8057;47.830;-3.870;2023-05-07T19:07:48;16.00;99.90
15916;DHT22;8057;47.830;-3.870;2023-05-07T19:12:06;16.00;99.90
15916;DHT22;8057;47.830;-3.870;2023-05-07T19:16:16;15.90;99.90
15916;DHT22;8057;47.830;-3.870;2023-05-07T19:25:35;15.70;99.90
15916;DHT22;8057;47.830;-3.870;2023-05-07T19:30:02;15.60;99.90
15916;DHT22;8057;47.830;-3.870;2023-05-07T19:34:38;15.50;99.90
15916;DHT22;8057;47.830;-3.870;2023-05-07T19:39:07;15.50;99.90
15916;DHT22;8057;47.830;-3.870;2023-05-07T19:43:37;15.40;99.90
15916;DHT22;8057;47.830;-3.870;2023-05-07T19:47:49;15.40;99.90
15916;DHT22;8057;47.830;-3.870;2023-05-07T19:57:38;15.30;99.90
15916;DHT22;8057;47.830;-3.870;2023-05-07T20:06:57;15.30;99.90
15916;DHT22;8057;47.830;-3.870;2023-05-07T20:11:13;15.20;99.90
15916;DHT22;8057;47.830;-3.870;2023-05-07T20:15:55;15.10;99.90
15916;DHT22;8057;47.830;-3.870;2023-05-07T20:21:01;15.10;99.90
15916;DHT22;8057;47.830;-3.870;2023-05-07T20:25:13;15.00;99.90
15916;DHT22;8057;47.830;-3.870;2023-05-07T20:29:24;14.90;99.90
15916;DHT22;8057;47.830;-3.870;2023-05-07T20:33:48;14.90;99.90
15916;DHT22;8057;47.830;-3.870;2023-05-07T20:37:58;14.80;99.90
15916;DHT22;8057;47.830;-3.870;2023-05-07T20:42:10;14.80;99.90
15916;DHT22;8057;47.830;-3.870;2023-05-07T20:46:20;14.80;99.90
15916;DHT22;8057;47.830;-3.870;2023-05-07T20:50:32;14.70;99.90
15916;DHT22;8057;47.830;-3.870;2023-05-07T20:54:42;14.60;99.90
15916;DHT22;8057;47.830;-3.870;2023-05-07T20:58:55;14.60;99.90
15916;DHT22;8057;47.830;-3.870;2023-05-07T21:03:05;14.60;99.90
15916;DHT22;8057;47.830;-3.870;2023-05-07T21:07:18;14.60;99.90
15916;DHT22;8057;47.830;-3.870;2023-05-07T21:11:28;14.50;99.90
15916;DHT22;8057;47.830;-3.870;2023-05-07T21:15:40;14.40;99.90
15916;DHT22;8057;47.830;-3.870;2023-05-07T21:19:50;14.40;99.90
15916;DHT22;8057;47.830;-3.870;2023-05-07T21:24:00;14.30;99.90
15916;DHT22;8057;47.830;-3.870;2023-05-07T21:28:10;14.30;99.90
15916;DHT22;8057;47.830;-3.870;2023-05-07T21:32:22;14.30;99.90
15916;DHT22;8057;47.830;-3.870;2023-05-07T21:36:32;14.30;99.90
15916;DHT22;8057;47.830;-3.870;2023-05-07T21:40:42;14.20;99.90
15916;DHT22;8057;47.830;-3.870;2023-05-07T21:44:52;14.10;99.90
15916;DHT22;8057;47.830;-3.870;2023-05-07T21:49:04;14.10;99.90
15916;DHT22;8057;47.830;-3.870;2023-05-07T21:53:13;14.10;99.90
15916;DHT22;8057;47.830;-3.870;2023-05-07T21:57:24;14.10;99.90
15916;DHT22;8057;47.830;-3.870;2023-05-07T22:01:34;14.00;99.90
15916;DHT22;8057;47.830;-3.870;2023-05-07T22:05:45;14.00;99.90
15916;DHT22;8057;47.830;-3.870;2023-05-07T22:09:56;14.10;99.90
15916;DHT22;8057;47.830;-3.870;2023-05-07T22:14:06;14.10;99.90
15916;DHT22;8057;47.830;-3.870;2023-05-07T22:18:16;14.00;99.90
15916;DHT22;8057;47.830;-3.870;2023-05-07T22:22:29;14.10;99.90
15916;DHT22;8057;47.830;-3.870;2023-05-07T22:26:43;14.10;99.90
15916;DHT22;8057;47.830;-3.870;2023-05-07T22:30:56;14.00;99.90
15916;DHT22;8057;47.830;-3.870;2023-05-07T22:35:08;14.00;99.90
15916;DHT22;8057;47.830;-3.870;2023-05-07T22:39:26;14.00;99.90
15916;DHT22;8057;47.830;-3.870;2023-05-07T22:43:43;14.00;99.90
15916;DHT22;8057;47.830;-3.870;2023-05-07T22:47:57;14.00;99.90
15916;DHT22;8057;47.830;-3.870;2023-05-07T22:52:11;14.00;99.90
15916;DHT22;8057;47.830;-3.870;2023-05-07T22:56:22;14.00;99.90
15916;DHT22;8057;47.830;-3.870;2023-05-07T23:00:32;14.00;99.90
15916;DHT22;8057;47.830;-3.870;2023-05-07T23:04:47;14.00;99.90
15916;DHT22;8057;47.830;-3.870;2023-05-07T23:09:09;14.00;99.90
15916;DHT22;8057;47.830;-3.870;2023-05-07T23:13:21;14.00;99.90
15916;DHT22;8057;47.830;-3.870;2023-05-07T23:17:31;14.00;99.90
15916;DHT22;8057;47.830;-3.870;2023-05-07T23:21:41;13.90;99.90
15916;DHT22;8057;47.830;-3.870;2023-05-07T23:25:52;13.90;99.90
15916;DHT22;8057;47.830;-3.870;2023-05-07T23:30:04;13.80;99.90
15916;DHT22;8057;47.830;-3.870;2023-05-07T23:34:15;13.80;99.90
15916;DHT22;8057;47.830;-3.870;2023-05-07T23:38:31;13.80;99.90
15916;DHT22;8057;47.830;-3.870;2023-05-07T23:42:41;13.80;99.90
15916;DHT22;8057;47.830;-3.870;2023-05-07T23:46:52;13.80;99.90
15916;DHT22;8057;47.830;-3.870;2023-05-07T23:51:02;13.70;99.90
15916;DHT22;8057;47.830;-3.870;2023-05-07T23:55:12;13.70;99.90
15916;DHT22;8057;47.830;-3.870;2023-05-07T23:59:23;13.70;99.90
